createdAt,value
2017-11-26T00:00:17.449Z,35.63
2017-11-26T00:02:44.960Z,31.73
2017-11-26T00:05:12.473Z,30.30
2017-11-26T00:07:40.054Z,25.47
2017-11-26T00:10:07.597Z,35.43
2017-11-26T00:12:35.139Z,21.97
2017-11-26T00:15:02.713Z,24.20
2017-11-26T00:17:30.253Z,22.57
2017-11-26T00:19:57.828Z,30.83
2017-11-26T00:22:25.367Z,27.13
2017-11-26T00:24:52.942Z,21.27
2017-11-26T00:27:20.464Z,21.53
2017-11-26T00:29:47.992Z,22.87
2017-11-26T00:32:15.549Z,16.80
2017-11-26T00:34:43.065Z,11.67
2017-11-26T00:37:10.589Z,14.27
2017-11-26T00:39:38.125Z,12.30
2017-11-26T00:42:05.698Z,11.27
2017-11-26T00:44:33.227Z,14.50
2017-11-26T00:47:00.757Z,13.93
2017-11-26T00:49:28.342Z,11.97
2017-11-26T00:51:55.871Z,11.83
2017-11-26T00:54:23.389Z,10.50
2017-11-26T00:56:50.963Z,9.07
2017-11-26T00:59:18.491Z,13.87
2017-11-26T01:01:46.019Z,14.50
2017-11-26T01:04:13.586Z,15.40
2017-11-26T01:06:41.114Z,15.70
2017-11-26T01:09:08.631Z,10.13
2017-11-26T01:11:36.294Z,12.43
2017-11-26T01:14:03.843Z,11.67
2017-11-26T01:16:31.367Z,16.33
2017-11-26T01:18:58.910Z,17.20
2017-11-26T01:21:26.455Z,13.50
2017-11-26T01:23:54.059Z,14.97
2017-11-26T01:26:21.588Z,22.00
2017-11-26T01:28:49.107Z,27.53
2017-11-26T01:31:16.666Z,22.80
2017-11-26T01:33:44.197Z,25.03
2017-11-26T01:36:11.769Z,32.53
2017-11-26T01:38:39.339Z,27.37
2017-11-26T01:41:06.868Z,38.90
2017-11-26T01:43:34.423Z,34.20
2017-11-26T01:46:01.946Z,43.87
2017-11-26T01:48:29.726Z,38.73
2017-11-26T01:50:57.241Z,35.20
2017-11-26T01:53:24.769Z,36.67
2017-11-26T01:55:52.366Z,42.67
2017-11-26T01:58:19.960Z,49.40
2017-11-26T02:00:50.316Z,48.40
2017-11-26T02:03:17.900Z,48.17
2017-11-26T02:05:45.479Z,45.40
2017-11-26T02:08:13.019Z,47.63
2017-11-26T02:10:40.575Z,51.03
2017-11-26T02:13:08.108Z,44.67
2017-11-26T02:15:35.664Z,58.20
2017-11-26T02:18:03.224Z,59.40
2017-11-26T02:20:30.806Z,64.60
2017-11-26T02:22:59.352Z,65.10
2017-11-26T02:25:27.122Z,61.33
2017-11-26T02:27:54.685Z,60.67
2017-11-26T02:30:22.218Z,59.00
2017-11-26T02:33:01.650Z,78.57
2017-11-26T02:35:39.028Z,59.30
2017-11-26T02:38:06.614Z,70.23
2017-11-26T02:40:34.154Z,74.30
2017-11-26T02:43:01.752Z,72.57
2017-11-26T02:45:29.310Z,68.27
2017-11-26T02:47:56.851Z,66.90
2017-11-26T02:50:24.459Z,61.37
2017-11-26T02:52:52.064Z,58.43
2017-11-26T02:55:19.593Z,72.83
2017-11-26T02:57:47.184Z,57.23
2017-11-26T03:00:14.779Z,58.20
2017-11-26T03:02:42.300Z,66.50
2017-11-26T03:05:09.834Z,57.93
2017-11-26T03:07:37.403Z,56.73
2017-11-26T03:10:04.963Z,66.10
2017-11-26T03:12:32.549Z,69.03
2017-11-26T03:15:00.100Z,73.07
2017-11-26T03:17:27.648Z,62.63
2017-11-26T03:19:55.204Z,70.83
2017-11-26T03:22:22.733Z,72.57
2017-11-26T03:24:50.479Z,69.33
2017-11-26T03:27:18.021Z,85.23
2017-11-26T03:29:45.608Z,64.70
2017-11-26T03:32:13.323Z,65.40
2017-11-26T03:34:40.853Z,63.70
2017-11-26T03:37:08.409Z,69.97
2017-11-26T03:39:36.018Z,69.67
2017-11-26T03:42:03.547Z,83.53
2017-11-26T03:44:31.106Z,58.63
2017-11-26T03:46:58.782Z,64.77
2017-11-26T03:49:26.328Z,66.00
2017-11-26T03:51:53.888Z,64.50
2017-11-26T03:54:21.443Z,65.73
2017-11-26T03:56:48.974Z,54.00
2017-11-26T03:59:16.712Z,61.07
2017-11-26T04:01:44.243Z,60.97
2017-11-26T04:04:11.771Z,58.67
2017-11-26T04:06:39.519Z,64.40
2017-11-26T04:09:07.065Z,68.40
2017-11-26T04:11:34.621Z,56.37
2017-11-26T04:14:02.185Z,52.13
2017-11-26T04:16:29.928Z,67.53
2017-11-26T04:18:57.448Z,56.53
2017-11-26T04:21:25.000Z,62.57
2017-11-26T04:23:52.546Z,61.37
2017-11-26T04:26:20.112Z,60.97
2017-11-26T04:28:47.700Z,60.03
2017-11-26T04:31:15.221Z,53.80
2017-11-26T04:33:42.765Z,65.00
2017-11-26T04:36:10.361Z,51.57
2017-11-26T04:38:37.897Z,60.73
2017-11-26T04:41:05.439Z,60.43
2017-11-26T04:43:33.027Z,65.63
2017-11-26T04:46:00.575Z,52.10
2017-11-26T04:48:28.127Z,52.90
2017-11-26T04:50:55.839Z,40.83
2017-11-26T04:53:23.393Z,52.13
2017-11-26T04:55:51.019Z,53.83
2017-11-26T04:58:18.580Z,47.47
2017-11-26T05:00:46.244Z,46.17
2017-11-26T05:03:13.806Z,57.33
2017-11-26T05:05:41.582Z,48.17
2017-11-26T05:08:09.263Z,45.60
2017-11-26T05:10:36.781Z,47.10
2017-11-26T05:13:04.502Z,53.13
2017-11-26T05:15:32.033Z,47.33
2017-11-26T05:17:59.572Z,41.30
2017-11-26T05:20:27.246Z,43.73
2017-11-26T05:22:54.786Z,45.00
2017-11-26T05:25:22.422Z,52.53
2017-11-26T05:27:49.993Z,44.67
2017-11-26T05:30:17.508Z,49.30
2017-11-26T05:32:45.046Z,40.73
2017-11-26T05:35:12.625Z,34.30
2017-11-26T05:37:40.158Z,43.73
2017-11-26T05:40:07.685Z,41.30
2017-11-26T05:42:35.265Z,42.10
2017-11-26T05:45:02.831Z,47.43
2017-11-26T05:47:30.365Z,47.63
2017-11-26T05:49:57.945Z,50.83
2017-11-26T05:52:25.469Z,29.77
2017-11-26T05:54:53.014Z,59.67
2017-11-26T05:57:20.570Z,47.50
2017-11-26T05:59:48.274Z,54.77
2017-11-26T06:02:15.807Z,41.17
2017-11-26T06:04:43.346Z,53.60
2017-11-26T06:07:10.911Z,36.53
2017-11-26T06:09:38.444Z,60.50
2017-11-26T06:12:06.152Z,50.30
2017-11-26T06:14:33.675Z,58.90
2017-11-26T06:17:01.189Z,45.77
2017-11-26T06:19:28.729Z,40.60
2017-11-26T06:21:56.250Z,34.43
2017-11-26T06:24:23.915Z,38.73
2017-11-26T06:26:51.446Z,43.07
2017-11-26T06:29:18.973Z,41.83
2017-11-26T06:31:46.633Z,37.03
2017-11-26T06:34:14.161Z,36.03
2017-11-26T06:36:41.690Z,37.20
2017-11-26T06:39:09.246Z,43.27
2017-11-26T06:41:36.789Z,45.13
2017-11-26T06:44:04.352Z,38.60
2017-11-26T06:46:31.899Z,41.87
2017-11-26T06:48:59.465Z,39.80
2017-11-26T06:51:27.006Z,35.73
2017-11-26T06:53:54.526Z,37.90
2017-11-26T06:56:22.183Z,38.87
2017-11-26T06:58:49.712Z,44.20
2017-11-26T07:01:17.233Z,41.20
2017-11-26T07:03:44.960Z,44.87
2017-11-26T07:06:12.469Z,47.93
2017-11-26T07:08:39.992Z,38.00
2017-11-26T07:11:07.583Z,43.00
2017-11-26T07:13:35.126Z,47.50
2017-11-26T07:16:02.645Z,38.40
2017-11-26T07:18:30.217Z,45.07
2017-11-26T07:20:57.779Z,39.43
2017-11-26T07:23:25.307Z,55.30
2017-11-26T07:25:52.882Z,33.23
2017-11-26T07:28:20.408Z,34.37
2017-11-26T07:30:47.954Z,29.37
2017-11-26T07:33:15.522Z,28.67
2017-11-26T07:35:43.040Z,19.37
2017-11-26T07:38:10.565Z,37.70
2017-11-26T07:40:38.100Z,31.70
2017-11-26T07:43:05.671Z,20.43
2017-11-26T07:45:33.292Z,26.57
2017-11-26T07:48:00.814Z,34.30
2017-11-26T07:50:28.396Z,27.50
2017-11-26T07:52:55.929Z,27.63
2017-11-26T07:55:23.453Z,30.50
2017-11-26T07:57:51.131Z,20.80
2017-11-26T08:00:18.669Z,30.83
2017-11-26T08:02:46.207Z,33.00
2017-11-26T08:05:13.776Z,30.33
2017-11-26T08:07:41.331Z,35.47
2017-11-26T08:10:08.859Z,30.23
2017-11-26T08:12:36.606Z,26.07
2017-11-26T08:15:04.136Z,27.47
2017-11-26T08:17:31.660Z,33.70
2017-11-26T08:19:59.214Z,23.23
2017-11-26T08:22:26.768Z,21.87
2017-11-26T08:24:54.314Z,27.87
2017-11-26T08:27:21.833Z,13.40
2017-11-26T08:29:49.501Z,23.90
2017-11-26T08:32:17.035Z,29.80
2017-11-26T08:34:44.541Z,24.33
2017-11-26T08:37:12.073Z,21.57
2017-11-26T08:39:39.595Z,24.80
2017-11-26T08:42:07.160Z,28.57
2017-11-26T08:44:34.701Z,31.63
2017-11-26T08:47:02.272Z,24.57
2017-11-26T08:49:29.811Z,17.63
2017-11-26T08:51:57.389Z,21.20
2017-11-26T08:54:24.928Z,16.87
2017-11-26T08:56:52.472Z,22.63
2017-11-26T08:59:20.017Z,14.87
2017-11-26T09:01:47.563Z,11.27
2017-11-26T09:04:15.159Z,10.50
2017-11-26T09:06:44.523Z,7.37
2017-11-26T09:09:12.068Z,7.63
2017-11-26T09:11:39.675Z,9.20
2017-11-26T09:14:07.248Z,3.33
2017-11-26T09:16:34.771Z,7.60
2017-11-26T09:19:02.358Z,6.27
2017-11-26T09:21:29.881Z,8.63
2017-11-26T09:23:57.394Z,4.80
2017-11-26T09:26:25.123Z,5.40
2017-11-26T09:28:52.638Z,6.40
2017-11-26T09:31:20.158Z,8.37
2017-11-26T09:33:47.699Z,9.60
2017-11-26T09:36:15.382Z,7.00
2017-11-26T09:38:42.947Z,12.50
2017-11-26T09:41:10.495Z,14.27
2017-11-26T09:43:38.014Z,16.93
2017-11-26T09:46:05.702Z,16.80
2017-11-26T09:48:33.217Z,16.03
2017-11-26T09:51:00.738Z,15.60
2017-11-26T09:53:28.286Z,17.10
2017-11-26T09:55:55.835Z,19.50
2017-11-26T09:58:23.592Z,18.80
2017-11-26T10:00:51.120Z,14.67
2017-11-26T10:03:18.636Z,13.57
2017-11-26T10:05:46.210Z,9.03
2017-11-26T10:08:13.735Z,13.07
2017-11-26T10:10:41.253Z,10.10
2017-11-26T10:13:08.804Z,6.60
2017-11-26T10:15:36.320Z,9.87
2017-11-26T10:18:03.894Z,11.53
2017-11-26T10:20:31.428Z,8.93
2017-11-26T10:22:58.960Z,13.70
2017-11-26T10:25:26.490Z,8.50
2017-11-26T10:27:54.056Z,9.00
2017-11-26T10:30:21.570Z,8.90
2017-11-26T10:32:49.088Z,10.23
2017-11-26T10:35:16.627Z,9.00
2017-11-26T10:37:44.216Z,5.50
2017-11-26T10:40:11.717Z,5.47
2017-11-26T10:42:39.255Z,7.70
2017-11-26T10:45:06.802Z,7.17
2017-11-26T10:47:34.387Z,5.83
2017-11-26T10:50:01.938Z,10.73
2017-11-26T10:52:29.483Z,11.97
2017-11-26T10:54:57.073Z,13.23
2017-11-26T10:57:24.605Z,15.77
2017-11-26T10:59:52.158Z,11.90
2017-11-26T11:02:19.755Z,10.90
2017-11-26T11:04:47.302Z,19.77
2017-11-26T11:07:14.842Z,13.97
2017-11-26T11:09:42.435Z,13.10
2017-11-26T11:12:09.945Z,9.63
2017-11-26T11:14:37.474Z,10.20
2017-11-26T11:17:05.077Z,13.53
2017-11-26T11:19:32.625Z,13.37
2017-11-26T11:22:00.171Z,10.43
2017-11-26T11:24:27.911Z,4.97
2017-11-26T11:26:55.443Z,15.87
2017-11-26T11:29:22.968Z,8.50
2017-11-26T11:31:50.513Z,8.13
2017-11-26T11:34:18.087Z,12.37
2017-11-26T11:36:45.718Z,9.93
2017-11-26T11:39:13.447Z,7.27
2017-11-26T11:41:40.949Z,7.90
2017-11-26T11:44:08.448Z,9.17
2017-11-26T11:46:36.010Z,6.53
2017-11-26T11:49:03.525Z,8.63
2017-11-26T11:51:31.060Z,5.50
2017-11-26T11:53:59.614Z,2.50
2017-11-26T11:56:27.146Z,1.47
2017-11-26T11:58:54.703Z,3.57
2017-11-26T12:01:22.238Z,2.33
2017-11-26T12:03:49.849Z,2.93
2017-11-26T12:06:17.359Z,4.77
2017-11-26T12:08:44.894Z,6.70
2017-11-26T12:11:12.564Z,4.50
2017-11-26T12:13:40.089Z,3.23
2017-11-26T12:16:07.623Z,6.07
2017-11-26T12:18:35.226Z,7.10
2017-11-26T12:21:02.753Z,4.70
2017-11-26T12:23:30.276Z,4.00
2017-11-26T12:25:57.856Z,7.90
2017-11-26T12:28:25.386Z,5.47
2017-11-26T12:30:52.921Z,3.40
2017-11-26T12:33:20.658Z,2.00
2017-11-26T12:35:48.208Z,4.83
2017-11-26T12:38:15.781Z,4.13
2017-11-26T12:40:43.488Z,9.03
2017-11-26T12:43:11.030Z,3.33
2017-11-26T12:45:38.579Z,1.77
2017-11-26T12:48:06.314Z,3.47
2017-11-26T12:50:33.842Z,1.10
2017-11-26T12:53:01.394Z,3.90
2017-11-26T12:55:28.973Z,2.80
2017-11-26T12:57:56.518Z,5.27
2017-11-26T13:00:24.180Z,3.63
2017-11-26T13:02:51.691Z,1.97
2017-11-26T13:05:19.230Z,2.80
2017-11-26T13:07:48.337Z,2.30
2017-11-26T13:10:15.929Z,1.90
2017-11-26T13:12:43.510Z,5.07
2017-11-26T13:15:11.062Z,6.50
2017-11-26T13:17:38.615Z,2.80
2017-11-26T13:20:06.192Z,6.20
2017-11-26T13:22:33.781Z,9.97
2017-11-26T13:25:01.308Z,3.77
2017-11-26T13:27:29.002Z,4.97
2017-11-26T13:29:56.598Z,6.60
2017-11-26T13:32:24.131Z,2.50
2017-11-26T13:34:51.811Z,4.53
2017-11-26T13:37:19.628Z,2.07
2017-11-26T13:39:47.174Z,3.90
2017-11-26T13:42:14.718Z,4.97
2017-11-26T13:44:42.413Z,6.63
2017-11-26T13:47:10.028Z,6.47
2017-11-26T13:49:37.614Z,2.93
2017-11-26T13:52:05.258Z,5.23
2017-11-26T13:54:32.786Z,0.80
2017-11-26T13:57:00.323Z,4.63
2017-11-26T13:59:27.894Z,6.43
2017-11-26T14:01:55.500Z,2.53
2017-11-26T14:04:23.095Z,6.40
2017-11-26T14:06:50.670Z,3.10
2017-11-26T14:09:18.215Z,4.40
2017-11-26T14:11:45.787Z,2.73
2017-11-26T14:14:13.326Z,4.10
2017-11-26T14:16:41.082Z,7.00
2017-11-26T14:19:08.601Z,2.30
2017-11-26T14:21:36.142Z,5.13
2017-11-26T14:24:03.914Z,4.80
2017-11-26T14:26:31.457Z,4.53
2017-11-26T14:28:58.988Z,3.27
2017-11-26T14:31:26.593Z,6.87
2017-11-26T14:33:54.121Z,6.83
2017-11-26T14:36:21.649Z,4.50
2017-11-26T14:38:49.225Z,6.90
2017-11-26T14:41:16.757Z,6.60
2017-11-26T14:43:45.505Z,7.37
2017-11-26T14:46:13.046Z,6.23
2017-11-26T14:48:40.590Z,10.70
2017-11-26T14:51:08.338Z,5.47
2017-11-26T14:53:35.878Z,5.53
2017-11-26T14:56:03.418Z,3.80
2017-11-26T14:58:30.970Z,4.07
2017-11-26T15:00:58.558Z,3.00
2017-11-26T15:03:26.114Z,5.67
2017-11-26T15:05:53.694Z,4.40
2017-11-26T15:08:21.224Z,3.63
2017-11-26T15:10:48.766Z,8.73
2017-11-26T15:13:16.398Z,3.43
2017-11-26T15:15:43.938Z,8.43
2017-11-26T15:18:11.461Z,4.87
2017-11-26T15:20:39.000Z,4.30
2017-11-26T15:23:06.585Z,8.53
2017-11-26T15:25:34.247Z,6.40
2017-11-26T15:28:01.809Z,4.67
2017-11-26T15:30:29.358Z,7.47
2017-11-26T15:32:56.919Z,5.80
2017-11-26T15:35:24.450Z,10.07
2017-11-26T15:37:52.011Z,7.13
2017-11-26T15:40:19.569Z,5.30
2017-11-26T15:42:47.362Z,6.73
2017-11-26T15:45:14.892Z,7.43
2017-11-26T15:47:42.431Z,4.33
2017-11-26T15:50:10.072Z,7.67
2017-11-26T15:52:37.608Z,6.87
2017-11-26T15:55:05.152Z,3.53
2017-11-26T15:57:32.705Z,7.60
2017-11-26T16:00:00.253Z,5.73
2017-11-26T16:02:27.833Z,7.27
2017-11-26T16:04:55.371Z,9.43
2017-11-26T16:07:22.974Z,11.83
2017-11-26T16:09:50.513Z,9.40
2017-11-26T16:12:18.110Z,11.50
2017-11-26T16:14:45.655Z,12.20
2017-11-26T16:17:13.213Z,8.53
2017-11-26T16:19:40.892Z,7.40
2017-11-26T16:22:08.443Z,16.50
2017-11-26T16:24:35.974Z,17.43
2017-11-26T16:27:03.556Z,12.23
2017-11-26T16:29:31.112Z,14.30
2017-11-26T16:31:58.674Z,14.13
2017-11-26T16:34:26.493Z,13.10
2017-11-26T16:36:54.042Z,13.07
2017-11-26T16:39:21.569Z,15.00
2017-11-26T16:41:49.140Z,10.53
2017-11-26T16:44:16.746Z,15.13
2017-11-26T16:46:44.460Z,21.23
2017-11-26T16:49:12.016Z,13.63
2017-11-26T16:51:39.637Z,15.27
2017-11-26T16:54:07.208Z,17.40
2017-11-26T16:56:34.771Z,15.87
2017-11-26T16:59:02.382Z,13.50
2017-11-26T17:01:29.971Z,17.00
2017-11-26T17:03:57.533Z,20.33
2017-11-26T17:06:25.133Z,23.57
2017-11-26T17:08:52.679Z,15.47
2017-11-26T17:11:20.213Z,22.93
2017-11-26T17:13:47.974Z,16.47
2017-11-26T17:16:15.517Z,16.83
2017-11-26T17:18:43.084Z,19.47
2017-11-26T17:21:10.653Z,22.30
2017-11-26T17:23:38.272Z,12.93
2017-11-26T17:26:05.843Z,13.17
2017-11-26T17:28:33.402Z,10.63
2017-11-26T17:31:01.099Z,18.43
2017-11-26T17:33:28.667Z,6.37
2017-11-26T17:35:56.227Z,11.93
2017-11-26T17:38:23.890Z,15.13
2017-11-26T17:40:51.429Z,23.23
2017-11-26T17:43:18.971Z,21.60
2017-11-26T17:45:46.546Z,11.10
2017-11-26T17:48:14.089Z,10.13
2017-11-26T17:50:41.657Z,14.70
2017-11-26T17:53:10.158Z,15.00
2017-11-26T17:55:37.703Z,16.80
2017-11-26T17:58:05.240Z,12.07
2017-11-26T18:00:32.862Z,15.53
2017-11-26T18:03:00.407Z,18.73
2017-11-26T18:05:27.987Z,13.07
2017-11-26T18:07:55.546Z,18.10
2017-11-26T18:10:23.058Z,17.30
2017-11-26T18:12:50.655Z,24.43
2017-11-26T18:15:18.260Z,25.70
2017-11-26T18:17:45.807Z,16.97
2017-11-26T18:20:13.583Z,21.30
2017-11-26T18:22:41.119Z,23.70
2017-11-26T18:25:08.637Z,23.80
2017-11-26T18:27:36.201Z,12.30
2017-11-26T18:30:03.763Z,20.00
2017-11-26T18:32:31.282Z,20.90
2017-11-26T18:34:59.047Z,13.33
2017-11-26T18:37:26.577Z,17.60
2017-11-26T18:39:54.103Z,13.97
2017-11-26T18:42:21.674Z,17.97
2017-11-26T18:44:49.190Z,16.53
2017-11-26T18:47:16.758Z,15.33
2017-11-26T18:49:44.289Z,16.27
2017-11-26T18:52:11.810Z,14.63
2017-11-26T18:54:39.357Z,24.03
2017-11-26T18:57:06.878Z,18.30
2017-11-26T18:59:34.421Z,16.13
2017-11-26T19:02:02.001Z,16.23
2017-11-26T19:04:29.575Z,14.00
2017-11-26T19:06:57.090Z,18.93
2017-11-26T19:09:24.619Z,33.83
2017-11-26T19:11:52.416Z,22.30
2017-11-26T19:14:19.967Z,28.03
2017-11-26T19:16:47.492Z,22.80
2017-11-26T19:19:15.227Z,23.33
2017-11-26T19:21:42.741Z,28.50
2017-11-26T19:24:10.350Z,18.83
2017-11-26T19:26:37.929Z,26.00
2017-11-26T19:29:05.441Z,21.43
2017-11-26T19:31:32.970Z,14.73
2017-11-26T19:34:00.525Z,22.20
2017-11-26T19:36:28.071Z,17.90
2017-11-26T19:38:55.651Z,21.20
2017-11-26T19:41:23.253Z,13.00
2017-11-26T19:43:50.800Z,19.57
2017-11-26T19:46:18.373Z,14.27
2017-11-26T19:48:45.918Z,18.07
2017-11-26T19:51:13.459Z,22.87
2017-11-26T19:53:41.048Z,28.00
2017-11-26T19:56:08.591Z,25.67
2017-11-26T19:58:36.127Z,18.20
2017-11-26T20:01:03.709Z,18.63
2017-11-26T20:03:31.249Z,19.63
2017-11-26T20:05:58.758Z,21.10
2017-11-26T20:08:26.352Z,17.63
2017-11-26T20:10:53.904Z,15.57
2017-11-26T20:13:21.417Z,21.17
2017-11-26T20:15:49.075Z,19.90
2017-11-26T20:18:16.606Z,19.13
2017-11-26T20:20:44.139Z,24.23
2017-11-26T20:23:12.654Z,16.23
2017-11-26T20:25:40.160Z,15.80
2017-11-26T20:28:07.786Z,16.03
2017-11-26T20:30:35.463Z,15.03
2017-11-26T20:33:02.976Z,16.90
2017-11-26T20:35:30.494Z,14.33
2017-11-26T20:37:58.066Z,17.90
2017-11-26T20:40:25.671Z,13.93
2017-11-26T20:42:53.200Z,13.83
2017-11-26T20:45:20.728Z,14.97
2017-11-26T20:47:48.279Z,12.13
2017-11-26T20:50:15.822Z,10.17
2017-11-26T20:52:43.391Z,15.43
2017-11-26T20:55:10.914Z,11.87
2017-11-26T20:57:38.433Z,11.83
2017-11-26T21:00:06.124Z,17.53
2017-11-26T21:02:33.650Z,11.63
2017-11-26T21:05:01.202Z,17.67
2017-11-26T21:07:28.732Z,15.53
2017-11-26T21:09:56.282Z,17.00
2017-11-26T21:12:23.815Z,10.87
2017-11-26T21:14:51.355Z,9.40
2017-11-26T21:17:18.919Z,14.20
2017-11-26T21:19:46.602Z,10.43
2017-11-26T21:22:14.132Z,11.33
2017-11-26T21:24:41.670Z,14.50
2017-11-26T21:27:09.434Z,18.57
2017-11-26T21:29:36.978Z,10.13
2017-11-26T21:32:04.498Z,21.33
2017-11-26T21:34:32.246Z,18.30
2017-11-26T21:36:59.847Z,17.63
2017-11-26T21:39:27.391Z,21.60
2017-11-26T21:41:55.048Z,16.87
2017-11-26T21:44:22.561Z,23.13
2017-11-26T21:46:50.087Z,18.27
2017-11-26T21:49:17.819Z,16.60
2017-11-26T21:51:45.541Z,14.73
2017-11-26T21:54:13.070Z,14.87
2017-11-26T21:56:40.674Z,14.93
2017-11-26T21:59:08.194Z,14.67
2017-11-26T22:01:35.718Z,18.23
2017-11-26T22:04:03.444Z,17.93
2017-11-26T22:06:30.974Z,23.23
2017-11-26T22:08:58.497Z,18.00
2017-11-26T22:11:26.255Z,23.70
2017-11-26T22:13:53.770Z,26.80
2017-11-26T22:16:21.287Z,20.17
2017-11-26T22:18:48.861Z,17.30
2017-11-26T22:21:16.440Z,19.33
2017-11-26T22:23:43.961Z,19.83
2017-11-26T22:26:11.495Z,23.60
2017-11-26T22:28:39.175Z,21.00
2017-11-26T22:31:06.787Z,26.90
2017-11-26T22:33:34.315Z,27.73
2017-11-26T22:36:01.839Z,29.00
2017-11-26T22:38:29.377Z,29.03
2017-11-26T22:40:56.902Z,18.60
2017-11-26T22:43:25.033Z,23.07
2017-11-26T22:45:52.603Z,23.67
2017-11-26T22:48:20.141Z,20.33
2017-11-26T22:50:47.745Z,32.43
2017-11-26T22:53:15.291Z,35.03
2017-11-26T22:55:42.857Z,28.13
2017-11-26T22:58:10.568Z,31.00
2017-11-26T23:00:38.159Z,32.33
2017-11-26T23:03:05.686Z,21.27
2017-11-26T23:05:33.254Z,26.93
2017-11-26T23:08:00.832Z,24.83
2017-11-26T23:10:28.348Z,23.17
2017-11-26T23:12:55.917Z,23.20
2017-11-26T23:15:23.481Z,26.87
2017-11-26T23:17:51.005Z,27.67
2017-11-26T23:20:18.534Z,27.23
2017-11-26T23:22:46.095Z,26.90
2017-11-26T23:25:13.619Z,24.93
2017-11-26T23:27:41.196Z,16.27
2017-11-26T23:30:08.803Z,22.70
2017-11-26T23:32:36.386Z,21.93
2017-11-26T23:35:04.147Z,20.30
2017-11-26T23:37:31.698Z,26.63
2017-11-26T23:39:59.238Z,25.80
2017-11-26T23:42:26.979Z,24.77
2017-11-26T23:44:54.511Z,28.87
2017-11-26T23:47:22.066Z,30.00
2017-11-26T23:49:49.785Z,37.47
2017-11-26T23:52:17.419Z,24.57
2017-11-26T23:54:44.946Z,33.73
2017-11-26T23:57:12.497Z,20.80
2017-11-26T23:59:40.017Z,34.30
